Time;durP1;ratioP1;P1;durP2;ratioP2;P2;SDS_P1;SDS_P2;PMS_P1;PMS_P2;Temp;Humidity;BMP_temperature;BMP_pressure;BME280_temperature;BME280_humidity;BME280_pressure;Samples;Min_cycle;Max_cycle;Signal;HPM_P1;HPM_P2
2023/01/30 00:00:20;;;;;;;;;29.00;27.00;;;;;-147.17;100.00;-15917.19;4995561;28;51527;-63
2023/01/30 00:02:45;;;;;;;;;39.00;36.00;;;;;-147.17;100.00;-15917.19;4992316;28;51462;-63
2023/01/30 00:05:14;;;;;;;;;39.00;35.75;;;;;-147.17;100.00;-15917.19;4962297;28;51494;-63
2023/01/30 00:07:39;;;;;;;;;34.25;32.75;;;;;-147.17;100.00;-15917.19;4988452;28;52532;-63
2023/01/30 00:10:09;;;;;;;;;36.25;35.25;;;;;-147.17;100.00;-15917.19;4980593;28;51144;-64
2023/01/30 00:12:35;;;;;;;;;32.25;29.00;;;;;-147.17;100.00;-15917.19;4950377;28;51849;-65
2023/01/30 00:15:00;;;;;;;;;33.00;31.00;;;;;-147.17;100.00;-15917.19;4989964;28;51274;-65
2023/01/30 00:17:29;;;;;;;;;47.50;39.25;;;;;-147.17;100.00;-15917.19;4988548;28;52773;-63
2023/01/30 00:19:59;;;;;;;;;35.75;34.25;;;;;-147.17;100.00;-15917.19;4974139;28;51256;-65
2023/01/30 00:22:33;;;;;;;;;36.75;32.75;;;;;-147.17;100.00;-15917.19;4956416;28;51520;-64
2023/01/30 00:25:02;;;;;;;;;37.75;33.50;;;;;-147.17;100.00;-15917.19;4965024;28;51334;-64
2023/01/30 00:27:33;;;;;;;;;26.75;25.00;;;;;-147.17;100.00;-15917.19;4984839;28;51225;-65
2023/01/30 00:30:03;;;;;;;;;38.75;35.75;;;;;-147.17;100.00;-15917.19;4980428;28;51218;-63
2023/01/30 00:32:29;;;;;;;;;46.25;40.00;;;;;-147.17;100.00;-15917.19;4965194;28;52148;-64
2023/01/30 00:34:58;;;;;;;;;58.00;46.00;;;;;-147.17;100.00;-15917.19;4964671;28;51423;-65
2023/01/30 00:37:27;;;;;;;;;40.00;36.00;;;;;-147.17;100.00;-15917.19;4967664;28;51214;-64
2023/01/30 00:39:56;;;;;;;;;40.50;36.25;;;;;-147.17;100.00;-15917.19;4969620;28;51644;-64
2023/01/30 00:47:51;;;;;;;;;31.00;29.25;;;;;-147.17;100.00;-15917.19;4972782;28;51053;-63
2023/01/30 00:50:17;;;;;;;;;35.50;30.50;;;;;-147.17;100.00;-15917.19;4972904;28;52962;-63
2023/01/30 00:52:42;;;;;;;;;35.50;32.00;;;;;-147.17;100.00;-15917.19;4972764;28;51003;-64
2023/01/30 00:55:08;;;;;;;;;28.75;26.75;;;;;-147.17;100.00;-15917.19;4988762;28;51081;-62
2023/01/30 00:57:33;;;;;;;;;31.50;29.50;;;;;-147.17;100.00;-15917.19;4971005;28;53000;-65
2023/01/30 00:59:58;;;;;;;;;30.50;30.50;;;;;-147.17;100.00;-15917.19;4969631;28;51220;-64
2023/01/30 01:02:24;;;;;;;;;28.75;27.75;;;;;-147.17;100.00;-15917.19;4980455;28;51101;-65
2023/01/30 01:04:49;;;;;;;;;28.50;27.50;;;;;-147.17;100.00;-15917.19;4971510;28;51102;-64
2023/01/30 01:07:14;;;;;;;;;35.50;29.25;;;;;-147.17;100.00;-15917.19;4964646;28;52072;-65
2023/01/30 01:09:40;;;;;;;;;31.00;30.00;;;;;-147.17;100.00;-15917.19;4975602;28;51243;-64
2023/01/30 01:12:07;;;;;;;;;30.25;29.25;;;;;-147.17;100.00;-15917.19;4974027;28;52108;-65
2023/01/30 01:14:33;;;;;;;;;28.00;25.75;;;;;-147.17;100.00;-15917.19;4971355;28;51176;-64
2023/01/30 01:16:59;;;;;;;;;27.75;25.75;;;;;-147.17;100.00;-15917.19;4973697;28;52090;-64
2023/01/30 01:19:24;;;;;;;;;28.50;26.25;;;;;-147.17;100.00;-15917.19;4970673;28;51143;-63
2023/01/30 01:21:50;;;;;;;;;26.00;25.00;;;;;-147.17;100.00;-15917.19;4973053;28;51161;-63
2023/01/30 01:24:16;;;;;;;;;26.00;23.50;;;;;-147.17;100.00;-15917.19;4972194;28;51097;-63
2023/01/30 01:26:42;;;;;;;;;24.75;21.25;;;;;-147.17;100.00;-15917.19;4966648;28;51968;-63
2023/01/30 01:29:13;;;;;;;;;29.75;28.50;;;;;-147.17;100.00;-15917.19;4979562;28;50918;-63
2023/01/30 01:31:38;;;;;;;;;31.75;25.00;;;;;-147.17;100.00;-15917.19;4979507;28;51190;-67
2023/01/30 01:34:03;;;;;;;;;31.50;28.25;;;;;-147.17;100.00;-15917.19;4991316;28;51116;-67
2023/01/30 01:36:29;;;;;;;;;26.25;26.00;;;;;-147.17;100.00;-15917.19;4974929;28;53073;-67
2023/01/30 01:38:54;;;;;;;;;32.75;29.50;;;;;-147.17;100.00;-15917.19;4993056;28;51090;-66
2023/01/30 01:41:20;;;;;;;;;30.50;28.50;;;;;-147.17;100.00;-15917.19;4992171;28;51281;-66
2023/01/30 01:44:05;;;;;;;;;22.50;21.50;;;;;-147.17;100.00;-15917.19;4992346;28;51489;-67
2023/01/30 01:46:45;;;;;;;;;38.50;36.00;;;;;-147.17;100.00;-15917.19;4987860;28;52501;-66
2023/01/30 01:49:27;;;;;;;;;39.25;37.25;;;;;-147.17;100.00;-15917.19;4991083;28;51407;-65
2023/01/30 01:52:08;;;;;;;;;37.75;34.75;;;;;-147.17;100.00;-15917.19;4990827;28;51233;-66
2023/01/30 01:54:37;;;;;;;;;37.00;34.75;;;;;-147.17;100.00;-15917.19;4988385;28;51354;-66
2023/01/30 01:57:07;;;;;;;;;27.25;21.50;;;;;-147.17;100.00;-15917.19;4991915;28;51118;-65
2023/01/30 01:59:42;;;;;;;;;29.50;25.00;;;;;-147.17;100.00;-15917.19;4992637;28;51205;-67
2023/01/30 02:02:11;;;;;;;;;33.75;30.50;;;;;-147.17;100.00;-15917.19;4991331;28;51145;-67
2023/01/30 02:07:27;;;;;;;;;29.25;25.00;;;;;-147.17;100.00;-15917.19;4990712;28;51643;-67
2023/01/30 02:09:52;;;;;;;;;34.25;29.00;;;;;-147.17;100.00;-15917.19;4974108;28;51045;-66
2023/01/30 02:12:18;;;;;;;;;35.25;28.75;;;;;-147.17;100.00;-15917.19;4998376;28;51239;-66
2023/01/30 02:14:44;;;;;;;;;23.50;20.75;;;;;-147.17;100.00;-15917.19;4992093;28;51432;-66
2023/01/30 02:17:09;;;;;;;;;32.50;29.25;;;;;-147.17;100.00;-15917.19;4993653;28;52666;-66
2023/01/30 02:19:59;;;;;;;;;27.00;26.75;;;;;-147.17;100.00;-15917.19;4974385;28;51072;-65
2023/01/30 02:23:04;;;;;;;;;27.00;24.25;;;;;-147.17;100.00;-15917.19;4989898;28;51129;-66
2023/01/30 02:25:35;;;;;;;;;35.50;29.25;;;;;-147.17;100.00;-15917.19;4995693;28;51101;-66
2023/01/30 02:28:22;;;;;;;;;24.25;23.25;;;;;-147.17;100.00;-15917.19;4991534;28;51070;-66
2023/01/30 02:31:18;;;;;;;;;29.75;26.00;;;;;-147.17;100.00;-15917.19;4973549;28;51198;-67
2023/01/30 02:34:05;;;;;;;;;29.00;27.50;;;;;-147.17;100.00;-15917.19;4992439;28;51213;-66
2023/01/30 02:36:53;;;;;;;;;29.25;26.25;;;;;-147.17;100.00;-15917.19;4990294;28;51294;-67
2023/01/30 02:39:31;;;;;;;;;30.25;25.50;;;;;-147.17;100.00;-15917.19;4992980;28;52056;-67
2023/01/30 02:42:10;;;;;;;;;30.50;25.75;;;;;-147.17;100.00;-15917.19;4973641;28;51176;-67
2023/01/30 02:44:54;;;;;;;;;27.00;25.75;;;;;-147.17;100.00;-15917.19;4994226;28;51083;-67
2023/01/30 02:47:30;;;;;;;;;32.50;27.00;;;;;-147.17;100.00;-15917.19;4992537;28;51053;-67
2023/01/30 02:50:15;;;;;;;;;26.50;25.50;;;;;-147.17;100.00;-15917.19;4996208;28;51070;-67
2023/01/30 02:52:42;;;;;;;;;30.25;25.00;;;;;-147.17;100.00;-15917.19;4993077;28;51208;-67
2023/01/30 02:55:38;;;;;;;;;29.25;26.25;;;;;-147.17;100.00;-15917.19;4992059;28;51031;-66
2023/01/30 02:58:04;;;;;;;;;30.25;29.75;;;;;-147.17;100.00;-15917.19;4979003;28;51232;-66
2023/01/30 03:00:38;;;;;;;;;30.00;28.25;;;;;-147.17;100.00;-15917.19;4990880;28;52160;-67
2023/01/30 03:03:43;;;;;;;;;28.50;28.50;;;;;-147.17;100.00;-15917.19;4990435;28;51105;-66
2023/01/30 03:06:17;;;;;;;;;29.25;26.75;;;;;-147.17;100.00;-15917.19;4991810;28;51007;-68
2023/01/30 03:09:13;;;;;;;;;32.75;30.50;;;;;-147.17;100.00;-15917.19;4991437;28;51291;-68
2023/01/30 03:11:56;;;;;;;;;33.75;27.00;;;;;-147.17;100.00;-15917.19;4984174;28;53099;-69
2023/01/30 03:14:50;;;;;;;;;32.00;29.25;;;;;-147.17;100.00;-15917.19;4976216;28;51314;-68
2023/01/30 03:17:19;;;;;;;;;29.25;27.50;;;;;-147.17;100.00;-15917.19;4992144;28;51090;-68
2023/01/30 03:19:45;;;;;;;;;30.25;29.50;;;;;-147.17;100.00;-15917.19;4997058;28;51106;-68
2023/01/30 03:22:10;;;;;;;;;26.75;24.75;;;;;-147.17;100.00;-15917.19;4993432;28;52067;-69
2023/01/30 03:24:36;;;;;;;;;29.75;29.25;;;;;-147.17;100.00;-15917.19;4976938;28;51069;-68
2023/01/30 03:27:11;;;;;;;;;30.25;27.50;;;;;-147.17;100.00;-15917.19;4994318;28;52723;-68
2023/01/30 03:29:38;;;;;;;;;32.25;28.75;;;;;-147.17;100.00;-15917.19;4995458;28;50919;-68
2023/01/30 03:32:03;;;;;;;;;32.25;30.75;;;;;-147.17;100.00;-15917.19;4992189;28;51089;-68
2023/01/30 03:34:28;;;;;;;;;32.75;29.00;;;;;-147.17;100.00;-15917.19;4977069;28;51037;-68
2023/01/30 03:36:55;;;;;;;;;26.25;25.00;;;;;-147.17;100.00;-15917.19;4994523;28;51051;-68
2023/01/30 03:39:22;;;;;;;;;29.00;26.50;;;;;-147.17;100.00;-15917.19;4976688;28;51316;-66
2023/01/30 03:41:47;;;;;;;;;25.75;24.00;;;;;-147.17;100.00;-15917.19;4993068;28;52128;-68
2023/01/30 03:44:12;;;;;;;;;30.75;27.00;;;;;-147.17;100.00;-15917.19;4993886;28;51170;-68
2023/01/30 03:46:38;;;;;;;;;31.75;29.00;;;;;-147.17;100.00;-15917.19;4994510;28;51011;-68
2023/01/30 03:49:03;;;;;;;;;29.50;26.00;;;;;-147.17;100.00;-15917.19;4995285;28;51444;-68
2023/01/30 03:51:28;;;;;;;;;32.00;30.25;;;;;-147.17;100.00;-15917.19;4994592;28;52006;-68
2023/01/30 03:53:54;;;;;;;;;27.25;25.25;;;;;-147.17;100.00;-15917.19;4996222;28;51114;-68
2023/01/30 03:56:19;;;;;;;;;32.00;27.75;;;;;-147.17;100.00;-15917.19;4996989;28;51099;-68
2023/01/30 03:58:44;;;;;;;;;28.25;24.50;;;;;-147.17;100.00;-15917.19;4999407;28;51143;-67
2023/01/30 04:01:10;;;;;;;;;26.00;25.00;;;;;-147.17;100.00;-15917.19;4993412;28;51047;-67
2023/01/30 04:03:35;;;;;;;;;28.25;25.00;;;;;-147.17;100.00;-15917.19;4983406;28;51261;-66
2023/01/30 04:06:00;;;;;;;;;28.50;24.00;;;;;-147.17;100.00;-15917.19;4991959;28;51601;-68
2023/01/30 04:08:26;;;;;;;;;25.75;24.25;;;;;-147.17;100.00;-15917.19;4993742;28;51215;-68
2023/01/30 04:10:51;;;;;;;;;24.00;21.75;;;;;-147.17;100.00;-15917.19;4990911;28;51952;-68
2023/01/30 04:13:17;;;;;;;;;28.50;25.75;;;;;-147.17;100.00;-15917.19;4991869;28;50897;-68
2023/01/30 04:15:42;;;;;;;;;27.75;26.75;;;;;-147.17;100.00;-15917.19;4994057;28;51397;-68
2023/01/30 04:18:07;;;;;;;;;30.50;28.25;;;;;-147.17;100.00;-15917.19;4993430;28;51230;-67
2023/01/30 04:20:33;;;;;;;;;25.50;23.50;;;;;-147.17;100.00;-15917.19;4991295;28;52414;-68
2023/01/30 04:22:58;;;;;;;;;29.75;28.75;;;;;-147.17;100.00;-15917.19;4991942;28;51019;-68
2023/01/30 04:25:24;;;;;;;;;24.25;23.00;;;;;-147.17;100.00;-15917.19;4993959;28;51034;-68
2023/01/30 04:27:49;;;;;;;;;28.75;25.50;;;;;-147.17;100.00;-15917.19;4992754;28;51287;-68
2023/01/30 04:30:15;;;;;;;;;30.00;26.25;;;;;-147.17;100.00;-15917.19;4974849;28;52697;-69
2023/01/30 04:32:40;;;;;;;;;29.50;27.00;;;;;-147.17;100.00;-15917.19;4989580;28;51260;-68
2023/01/30 04:35:06;;;;;;;;;23.50;22.25;;;;;-147.17;100.00;-15917.19;4992921;28;51080;-68
2023/01/30 04:37:31;;;;;;;;;30.00;26.00;;;;;-147.17;100.00;-15917.19;4993384;28;51327;-68
2023/01/30 04:39:56;;;;;;;;;26.25;25.25;;;;;-147.17;100.00;-15917.19;4989159;28;51158;-68
2023/01/30 04:42:22;;;;;;;;;30.50;27.25;;;;;-147.17;100.00;-15917.19;4992099;28;51110;-69
2023/01/30 04:44:47;;;;;;;;;31.50;28.00;;;;;-147.17;100.00;-15917.19;4975503;28;51837;-69
2023/01/30 04:47:12;;;;;;;;;29.75;25.50;;;;;-147.17;100.00;-15917.19;4993419;28;51202;-67
2023/01/30 04:49:38;;;;;;;;;25.25;23.50;;;;;-147.17;100.00;-15917.19;4995900;28;51210;-68
2023/01/30 04:52:03;;;;;;;;;25.50;25.25;;;;;-147.17;100.00;-15917.19;4995079;28;51153;-68
2023/01/30 04:54:29;;;;;;;;;21.25;20.75;;;;;-147.17;100.00;-15917.19;4979597;28;51251;-68
2023/01/30 04:56:54;;;;;;;;;25.25;21.25;;;;;-147.17;100.00;-15917.19;4995407;28;52235;-68
2023/01/30 04:59:19;;;;;;;;;22.00;21.00;;;;;-147.17;100.00;-15917.19;4997148;28;51343;-68
2023/01/30 05:02:02;;;;;;;;;25.25;24.50;;;;;-147.17;100.00;-15917.19;4993702;28;50830;-68
2023/01/30 05:04:37;;;;;;;;;25.00;24.75;;;;;-147.17;100.00;-15917.19;4974374;28;51402;-67
2023/01/30 05:07:10;;;;;;;;;30.25;27.25;;;;;-147.17;100.00;-15917.19;4992769;28;51327;-68
2023/01/30 05:09:36;;;;;;;;;30.75;29.00;;;;;-147.17;100.00;-15917.19;4971013;28;52440;-68
2023/01/30 05:12:01;;;;;;;;;24.50;24.00;;;;;-147.17;100.00;-15917.19;4991075;28;51124;-68
2023/01/30 05:14:26;;;;;;;;;26.50;25.75;;;;;-147.17;100.00;-15917.19;4992890;28;51206;-68
2023/01/30 05:16:51;;;;;;;;;22.50;20.00;;;;;-147.17;100.00;-15917.19;4976272;28;51023;-67
2023/01/30 05:19:17;;;;;;;;;25.00;22.50;;;;;-147.17;100.00;-15917.19;4993393;28;51173;-67
2023/01/30 05:21:42;;;;;;;;;29.75;28.75;;;;;-147.17;100.00;-15917.19;4992800;28;51195;-68
2023/01/30 05:24:08;;;;;;;;;30.75;25.75;;;;;-147.17;100.00;-15917.19;4992133;28;51305;-68
2023/01/30 05:26:33;;;;;;;;;26.25;25.00;;;;;-147.17;100.00;-15917.19;4977574;28;51003;-68
2023/01/30 05:28:59;;;;;;;;;24.75;24.00;;;;;-147.17;100.00;-15917.19;4993339;28;51063;-67
2023/01/30 05:31:24;;;;;;;;;25.50;24.00;;;;;-147.17;100.00;-15917.19;4990392;28;51285;-68
2023/01/30 05:33:51;;;;;;;;;30.75;24.50;;;;;-147.17;100.00;-15917.19;4991725;28;51228;-67
2023/01/30 05:36:19;;;;;;;;;26.50;25.75;;;;;-147.17;100.00;-15917.19;4992383;28;51253;-67
2023/01/30 05:38:45;;;;;;;;;28.25;26.50;;;;;-147.17;100.00;-15917.19;4973417;28;51884;-68
2023/01/30 05:41:12;;;;;;;;;29.75;27.25;;;;;-147.17;100.00;-15917.19;4990410;28;51213;-67
2023/01/30 05:43:37;;;;;;;;;30.00;28.75;;;;;-147.17;100.00;-15917.19;4992281;28;51256;-67
2023/01/30 05:46:06;;;;;;;;;25.00;20.25;;;;;-147.17;100.00;-15917.19;4992852;28;51261;-69
2023/01/30 05:48:32;;;;;;;;;27.50;25.75;;;;;-147.17;100.00;-15917.19;4991947;28;50970;-68
2023/01/30 05:50:59;;;;;;;;;33.00;26.00;;;;;-147.17;100.00;-15917.19;4991241;28;53200;-67
2023/01/30 05:53:27;;;;;;;;;29.00;22.25;;;;;-147.17;100.00;-15917.19;4991173;28;51021;-68
2023/01/30 05:56:04;;;;;;;;;29.25;26.75;;;;;-147.17;100.00;-15917.19;4989398;28;51186;-67
2023/01/30 05:58:30;;;;;;;;;28.75;26.25;;;;;-147.17;100.00;-15917.19;4957798;28;53178;-68
2023/01/30 06:01:01;;;;;;;;;25.75;24.25;;;;;-147.17;100.00;-15917.19;4989385;28;51078;-68
2023/01/30 06:03:26;;;;;;;;;22.25;21.75;;;;;-147.17;100.00;-15917.19;4994003;28;51154;-68
2023/01/30 06:05:52;;;;;;;;;25.50;25.00;;;;;-147.17;100.00;-15917.19;4974731;28;51352;-67
2023/01/30 06:08:17;;;;;;;;;26.75;24.50;;;;;-147.17;100.00;-15917.19;4991864;28;51927;-67
2023/01/30 06:10:42;;;;;;;;;29.75;26.50;;;;;-147.17;100.00;-15917.19;4992084;28;51044;-67
2023/01/30 06:13:11;;;;;;;;;25.00;23.00;;;;;-147.17;100.00;-15917.19;4990791;28;51248;-68
2023/01/30 06:15:37;;;;;;;;;24.25;21.00;;;;;-147.17;100.00;-15917.19;4990695;28;51671;-67
2023/01/30 06:18:02;;;;;;;;;24.50;21.50;;;;;-147.17;100.00;-15917.19;4995941;28;51113;-70
2023/01/30 06:20:27;;;;;;;;;24.00;23.00;;;;;-147.17;100.00;-15917.19;4973399;28;51188;-68
2023/01/30 06:22:53;;;;;;;;;27.25;20.00;;;;;-147.17;100.00;-15917.19;4992149;28;51140;-67
2023/01/30 06:25:18;;;;;;;;;25.75;20.75;;;;;-147.17;100.00;-15917.19;4991837;28;51272;-67
2023/01/30 06:27:45;;;;;;;;;25.00;21.75;;;;;-147.17;100.00;-15917.19;4990564;28;52635;-68
2023/01/30 06:30:10;;;;;;;;;25.00;20.75;;;;;-147.17;100.00;-15917.19;4991698;28;51068;-68
2023/01/30 06:32:36;;;;;;;;;24.75;23.75;;;;;-147.17;100.00;-15917.19;4988884;28;51260;-69
2023/01/30 06:35:02;;;;;;;;;22.25;21.25;;;;;-147.17;100.00;-15917.19;4991960;28;51158;-69
2023/01/30 06:37:28;;;;;;;;;24.75;21.00;;;;;-147.17;100.00;-15917.19;4990893;28;51308;-68
2023/01/30 06:39:53;;;;;;;;;27.50;26.75;;;;;-147.17;100.00;-15917.19;4993671;28;51205;-68
2023/01/30 06:42:18;;;;;;;;;29.75;25.75;;;;;-147.17;100.00;-15917.19;4988114;28;51266;-69
2023/01/30 06:44:44;;;;;;;;;25.50;22.75;;;;;-147.17;100.00;-15917.19;4992020;28;51125;-67
2023/01/30 06:47:09;;;;;;;;;24.00;18.75;;;;;-147.17;100.00;-15917.19;4992703;28;52066;-68
2023/01/30 06:49:34;;;;;;;;;28.25;27.50;;;;;-147.17;100.00;-15917.19;4997336;28;51180;-68
2023/01/30 06:52:00;;;;;;;;;21.25;20.25;;;;;-147.17;100.00;-15917.19;4996970;28;51105;-67
2023/01/30 06:54:25;;;;;;;;;21.25;20.75;;;;;-147.17;100.00;-15917.19;4997891;28;51338;-68
2023/01/30 06:56:50;;;;;;;;;25.25;25.00;;;;;-147.17;100.00;-15917.19;4976567;28;53410;-67
2023/01/30 06:59:16;;;;;;;;;23.75;21.00;;;;;-147.17;100.00;-15917.19;4994826;28;51483;-68
2023/01/30 07:01:41;;;;;;;;;25.25;21.50;;;;;-147.17;100.00;-15917.19;4991679;28;51922;-69
2023/01/30 07:04:06;;;;;;;;;21.00;18.25;;;;;-147.17;100.00;-15917.19;4999652;28;51506;-68
2023/01/30 07:06:32;;;;;;;;;26.50;24.75;;;;;-147.17;100.00;-15917.19;4990636;28;51165;-69
2023/01/30 07:08:57;;;;;;;;;21.75;19.75;;;;;-147.17;100.00;-15917.19;4990502;28;52395;-69
2023/01/30 07:11:27;;;;;;;;;25.25;22.50;;;;;-147.17;100.00;-15917.19;4997800;28;51244;-68
2023/01/30 07:13:52;;;;;;;;;25.00;24.75;;;;;-147.17;100.00;-15917.19;4993696;28;51145;-68
2023/01/30 07:16:17;;;;;;;;;21.00;20.50;;;;;-147.17;100.00;-15917.19;4975093;28;52502;-68
2023/01/30 07:18:44;;;;;;;;;26.25;24.50;;;;;-147.17;100.00;-15917.19;4990207;28;51012;-67
2023/01/30 07:21:09;;;;;;;;;23.25;22.00;;;;;-147.17;100.00;-15917.19;4987461;28;51200;-68
2023/01/30 07:23:35;;;;;;;;;27.00;22.25;;;;;-147.17;100.00;-15917.19;4981981;28;51368;-68
2023/01/30 07:26:06;;;;;;;;;23.25;20.25;;;;;-147.17;100.00;-15917.19;4967795;28;53747;-66
2023/01/30 07:28:31;;;;;;;;;21.75;18.50;;;;;-147.17;100.00;-15917.19;4987148;28;51437;-67
2023/01/30 07:31:00;;;;;;;;;25.75;22.50;;;;;-147.17;100.00;-15917.19;4999416;28;51099;-67
2023/01/30 07:33:26;;;;;;;;;21.50;19.50;;;;;-147.17;100.00;-15917.19;4981556;28;51699;-66
2023/01/30 07:35:51;;;;;;;;;20.25;18.50;;;;;-147.17;100.00;-15917.19;4977842;28;53009;-66
2023/01/30 07:38:17;;;;;;;;;24.00;22.00;;;;;-147.17;100.00;-15917.19;4991200;28;51229;-66
2023/01/30 07:40:42;;;;;;;;;23.00;18.00;;;;;-147.17;100.00;-15917.19;4993070;28;51581;-67
2023/01/30 07:43:10;;;;;;;;;21.00;20.00;;;;;-147.17;100.00;-15917.19;4994095;28;51051;-67
2023/01/30 07:45:48;;;;;;;;;26.50;25.50;;;;;-147.17;100.00;-15917.19;4995155;28;51111;-66
2023/01/30 07:48:15;;;;;;;;;20.75;19.00;;;;;-147.17;100.00;-15917.19;4992107;28;52135;-66
2023/01/30 07:50:42;;;;;;;;;22.50;21.50;;;;;-147.17;100.00;-15917.19;4993125;28;51288;-68
2023/01/30 07:53:10;;;;;;;;;20.25;18.25;;;;;-147.17;100.00;-15917.19;4990934;28;51378;-69
2023/01/30 07:55:36;;;;;;;;;35.50;31.50;;;;;-147.17;100.00;-15917.19;4996016;28;51157;-68
2023/01/30 07:58:01;;;;;;;;;30.25;26.75;;;;;-147.17;100.00;-15917.19;4988516;28;51177;-68
2023/01/30 08:00:27;;;;;;;;;33.25;31.00;;;;;-147.17;100.00;-15917.19;4979794;28;51216;-67
2023/01/30 08:02:52;;;;;;;;;24.25;22.75;;;;;-147.17;100.00;-15917.19;4993852;28;51435;-68
2023/01/30 08:05:17;;;;;;;;;23.25;23.00;;;;;-147.17;100.00;-15917.19;4995387;28;51198;-66
2023/01/30 08:07:43;;;;;;;;;21.00;20.00;;;;;-147.17;100.00;-15917.19;4992393;28;51168;-66
2023/01/30 08:10:09;;;;;;;;;27.25;24.50;;;;;-147.17;100.00;-15917.19;4991472;28;51225;-69
2023/01/30 08:12:34;;;;;;;;;15.50;13.25;;;;;-147.17;100.00;-15917.19;4973437;28;51439;-68
2023/01/30 08:15:00;;;;;;;;;21.75;20.50;;;;;-147.17;100.00;-15917.19;4992593;28;50987;-68
2023/01/30 08:17:25;;;;;;;;;23.25;21.25;;;;;-147.17;100.00;-15917.19;4992838;28;51191;-68
2023/01/30 08:19:50;;;;;;;;;26.50;25.75;;;;;-147.17;100.00;-15917.19;4988568;28;51147;-68
2023/01/30 08:22:16;;;;;;;;;26.50;23.25;;;;;-147.17;100.00;-15917.19;4991622;28;51103;-68
2023/01/30 08:24:41;;;;;;;;;22.75;20.50;;;;;-147.17;100.00;-15917.19;4990670;28;51092;-69
2023/01/30 08:27:07;;;;;;;;;26.50;23.75;;;;;-147.17;100.00;-15917.19;4996134;28;51118;-69
2023/01/30 08:29:32;;;;;;;;;20.00;16.75;;;;;-147.17;100.00;-15917.19;4992421;28;51042;-68
2023/01/30 08:31:58;;;;;;;;;25.25;17.50;;;;;-147.17;100.00;-15917.19;4992263;28;51233;-68
2023/01/30 08:34:24;;;;;;;;;23.25;22.00;;;;;-147.17;100.00;-15917.19;4992950;28;51900;-69
2023/01/30 08:36:50;;;;;;;;;22.75;22.25;;;;;-147.17;100.00;-15917.19;4993461;28;50975;-70
2023/01/30 08:39:15;;;;;;;;;25.75;22.00;;;;;-147.17;100.00;-15917.19;4974781;28;51177;-68
2023/01/30 08:41:43;;;;;;;;;23.75;18.25;;;;;-147.17;100.00;-15917.19;4992774;28;51414;-67
2023/01/30 08:44:10;;;;;;;;;24.75;21.75;;;;;-147.17;100.00;-15917.19;4993046;28;51194;-68
2023/01/30 08:46:36;;;;;;;;;21.50;19.75;;;;;-147.17;100.00;-15917.19;4993518;28;51178;-69
2023/01/30 08:49:01;;;;;;;;;21.50;20.25;;;;;-147.17;100.00;-15917.19;4993729;28;50838;-69
2023/01/30 08:51:27;;;;;;;;;23.75;22.50;;;;;-147.17;100.00;-15917.19;4994329;28;50936;-69
2023/01/30 08:53:52;;;;;;;;;28.00;24.50;;;;;-147.17;100.00;-15917.19;4975540;28;51044;-69
2023/01/30 08:56:17;;;;;;;;;24.00;22.50;;;;;-147.17;100.00;-15917.19;4990148;28;51069;-69
2023/01/30 08:58:45;;;;;;;;;27.00;26.00;;;;;-147.17;100.00;-15917.19;4993411;28;51751;-69
2023/01/30 09:01:11;;;;;;;;;20.75;18.75;;;;;-147.17;100.00;-15917.19;4994008;28;50900;-69
2023/01/30 09:03:37;;;;;;;;;29.75;27.25;;;;;-147.17;100.00;-15917.19;4982819;28;52407;-69
2023/01/30 09:06:03;;;;;;;;;27.25;24.00;;;;;-147.17;100.00;-15917.19;4995439;28;51175;-69
2023/01/30 09:08:28;;;;;;;;;24.50;23.00;;;;;-147.17;100.00;-15917.19;4979253;28;51123;-68
2023/01/30 09:10:58;;;;;;;;;22.75;21.00;;;;;-147.17;100.00;-15917.19;4979928;28;51352;-68
2023/01/30 09:13:24;;;;;;;;;23.00;19.75;;;;;-147.17;100.00;-15917.19;4996741;28;51829;-69
2023/01/30 09:15:49;;;;;;;;;23.25;21.00;;;;;-147.17;100.00;-15917.19;4990434;28;51377;-69
2023/01/30 09:18:15;;;;;;;;;19.75;16.25;;;;;-147.17;100.00;-15917.19;4998229;28;51148;-69
2023/01/30 09:20:40;;;;;;;;;20.50;18.75;;;;;-147.17;100.00;-15917.19;4996033;28;50895;-69
2023/01/30 09:23:06;;;;;;;;;22.25;22.00;;;;;-147.17;100.00;-15917.19;4995229;28;51758;-70
2023/01/30 09:25:31;;;;;;;;;28.25;24.50;;;;;-147.17;100.00;-15917.19;4964534;28;51332;-68
2023/01/30 09:27:57;;;;;;;;;22.00;16.75;;;;;-147.17;100.00;-15917.19;4994938;28;51074;-68
2023/01/30 09:30:22;;;;;;;;;19.75;19.25;;;;;-147.17;100.00;-15917.19;4976726;28;51008;-68
2023/01/30 09:32:47;;;;;;;;;26.50;21.25;;;;;-147.17;100.00;-15917.19;4994340;28;51083;-69
2023/01/30 09:35:13;;;;;;;;;22.25;20.50;;;;;-147.17;100.00;-15917.19;4994736;28;51045;-68
2023/01/30 09:37:49;;;;;;;;;22.75;21.25;;;;;-147.17;100.00;-15917.19;4976873;28;51043;-69
2023/01/30 09:40:19;;;;;;;;;23.00;20.75;;;;;-147.17;100.00;-15917.19;4983055;28;51043;-69
2023/01/30 09:42:59;;;;;;;;;26.50;20.50;;;;;-147.17;100.00;-15917.19;4996139;28;52187;-69
2023/01/30 09:45:48;;;;;;;;;21.50;21.25;;;;;-147.17;100.00;-15917.19;4993152;28;51103;-68
2023/01/30 09:48:19;;;;;;;;;18.75;16.75;;;;;-147.17;100.00;-15917.19;4977156;28;50973;-68
2023/01/30 09:51:11;;;;;;;;;18.00;16.25;;;;;-147.17;100.00;-15917.19;4994536;28;51159;-69
2023/01/30 09:53:49;;;;;;;;;18.75;17.25;;;;;-147.17;100.00;-15917.19;4994097;28;51199;-70
2023/01/30 09:56:14;;;;;;;;;17.75;17.25;;;;;-147.17;100.00;-15917.19;4993092;28;51079;-68
2023/01/30 09:59:01;;;;;;;;;17.75;17.50;;;;;-147.17;100.00;-15917.19;4993371;28;51111;-70
2023/01/30 10:01:43;;;;;;;;;18.00;17.25;;;;;-147.17;100.00;-15917.19;4975935;28;51743;-69
2023/01/30 10:04:17;;;;;;;;;21.00;17.50;;;;;-147.17;100.00;-15917.19;4992325;28;51316;-69
2023/01/30 10:07:11;;;;;;;;;15.00;14.50;;;;;-147.17;100.00;-15917.19;4992664;28;51107;-69
2023/01/30 10:09:55;;;;;;;;;11.75;9.50;;;;;-147.17;100.00;-15917.19;4974174;28;51128;-69
2023/01/30 10:12:48;;;;;;;;;17.00;16.75;;;;;-147.17;100.00;-15917.19;4993354;28;51210;-69
2023/01/30 10:15:52;;;;;;;;;17.50;16.25;;;;;-147.17;100.00;-15917.19;4983280;28;51147;-69
2023/01/30 10:18:54;;;;;;;;;20.00;18.50;;;;;-147.17;100.00;-15917.19;4992600;28;51076;-71
2023/01/30 10:21:58;;;;;;;;;11.75;11.75;;;;;-147.17;100.00;-15917.19;4974811;28;51043;-68
2023/01/30 10:24:26;;;;;;;;;17.75;17.25;;;;;-147.17;100.00;-15917.19;4987192;28;51351;-69
2023/01/30 10:26:53;;;;;;;;;16.50;14.00;;;;;-147.17;100.00;-15917.19;4992556;28;51866;-71
2023/01/30 10:29:36;;;;;;;;;17.50;17.00;;;;;-147.17;100.00;-15917.19;4993254;28;50972;-70
2023/01/30 10:32:39;;;;;;;;;15.00;14.75;;;;;-147.17;100.00;-15917.19;4992471;28;50953;-69
2023/01/30 10:35:25;;;;;;;;;17.25;16.50;;;;;-147.17;100.00;-15917.19;4916454;28;51235;-70
2023/01/30 10:38:02;;;;;;;;;17.25;17.00;;;;;-147.17;100.00;-15917.19;4992309;28;52482;-70
2023/01/30 10:40:34;;;;;;;;;17.75;15.25;;;;;-147.17;100.00;-15917.19;4991995;28;51254;-69
2023/01/30 10:43:02;;;;;;;;;16.50;13.25;;;;;-147.17;100.00;-15917.19;4991178;28;50985;-69
2023/01/30 10:45:40;;;;;;;;;15.25;13.75;;;;;-147.17;100.00;-15917.19;4992491;28;50948;-69
2023/01/30 10:48:18;;;;;;;;;18.00;16.00;;;;;-147.17;100.00;-15917.19;4990747;28;52100;-70
2023/01/30 10:50:43;;;;;;;;;16.00;13.75;;;;;-147.17;100.00;-15917.19;4992577;28;51056;-69
2023/01/30 10:53:37;;;;;;;;;14.00;13.75;;;;;-147.17;100.00;-15917.19;4992244;28;50978;-69
2023/01/30 10:56:11;;;;;;;;;16.00;14.75;;;;;-147.17;100.00;-15917.19;4978240;28;51265;-72
2023/01/30 10:58:50;;;;;;;;;15.00;14.00;;;;;-147.17;100.00;-15917.19;4992430;28;52464;-70
2023/01/30 11:01:31;;;;;;;;;18.75;17.50;;;;;-147.17;100.00;-15917.19;4992260;28;50927;-70
2023/01/30 11:04:02;;;;;;;;;14.00;13.75;;;;;-147.17;100.00;-15917.19;4975602;28;51142;-70
2023/01/30 11:06:29;;;;;;;;;19.25;18.75;;;;;-147.17;100.00;-15917.19;4992035;28;51296;-69